sensor_id;sensor_type;location;lat;lon;timestamp;P1;durP1;ratioP1;P2;durP2;ratioP2
7931;SDS011;4011;49.424;10.894;2023-06-14T00:03:33;4.80;;;3.60;;
7931;SDS011;4011;49.424;10.894;2023-06-14T00:08:55;6.47;;;4.03;;
7931;SDS011;4011;49.424;10.894;2023-06-14T00:14:19;4.28;;;3.28;;
7931;SDS011;4011;49.424;10.894;2023-06-14T00:19:41;4.97;;;4.45;;
7931;SDS011;4011;49.424;10.894;2023-06-14T00:25:02;5.03;;;3.80;;
7931;SDS011;4011;49.424;10.894;2023-06-14T00:30:25;4.47;;;3.72;;
7931;SDS011;4011;49.424;10.894;2023-06-14T00:35:50;5.18;;;3.58;;
7931;SDS011;4011;49.424;10.894;2023-06-14T00:41:13;5.50;;;3.95;;
7931;SDS011;4011;49.424;10.894;2023-06-14T00:46:37;6.05;;;3.70;;
7931;SDS011;4011;49.424;10.894;2023-06-14T00:51:58;5.20;;;3.92;;
7931;SDS011;4011;49.424;10.894;2023-06-14T00:57:20;4.82;;;3.63;;
7931;SDS011;4011;49.424;10.894;2023-06-14T01:02:45;4.70;;;4.13;;
7931;SDS011;4011;49.424;10.894;2023-06-14T01:08:11;4.78;;;4.13;;
7931;SDS011;4011;49.424;10.894;2023-06-14T01:13:36;5.03;;;3.78;;
7931;SDS011;4011;49.424;10.894;2023-06-14T01:19:00;5.70;;;3.65;;
7931;SDS011;4011;49.424;10.894;2023-06-14T01:24:23;4.90;;;4.32;;
7931;SDS011;4011;49.424;10.894;2023-06-14T01:29:45;4.70;;;3.53;;
7931;SDS011;4011;49.424;10.894;2023-06-14T01:35:07;4.63;;;3.42;;
7931;SDS011;4011;49.424;10.894;2023-06-14T01:40:30;4.75;;;3.60;;
7931;SDS011;4011;49.424;10.894;2023-06-14T01:45:52;5.60;;;4.03;;
7931;SDS011;4011;49.424;10.894;2023-06-14T01:51:14;5.25;;;4.20;;
7931;SDS011;4011;49.424;10.894;2023-06-14T01:56:38;4.38;;;3.58;;
7931;SDS011;4011;49.424;10.894;2023-06-14T02:01:59;4.57;;;3.40;;
7931;SDS011;4011;49.424;10.894;2023-06-14T02:07:21;4.80;;;3.45;;
7931;SDS011;4011;49.424;10.894;2023-06-14T02:12:48;5.38;;;4.13;;
7931;SDS011;4011;49.424;10.894;2023-06-14T02:18:10;4.70;;;3.67;;
7931;SDS011;4011;49.424;10.894;2023-06-14T02:23:31;4.50;;;3.70;;
7931;SDS011;4011;49.424;10.894;2023-06-14T02:28:55;5.45;;;3.63;;
7931;SDS011;4011;49.424;10.894;2023-06-14T02:34:16;5.32;;;4.25;;
7931;SDS011;4011;49.424;10.894;2023-06-14T02:39:39;4.20;;;3.40;;
7931;SDS011;4011;49.424;10.894;2023-06-14T02:45:03;4.85;;;3.63;;
7931;SDS011;4011;49.424;10.894;2023-06-14T02:50:24;4.05;;;3.28;;
7931;SDS011;4011;49.424;10.894;2023-06-14T02:55:48;4.50;;;3.80;;
7931;SDS011;4011;49.424;10.894;2023-06-14T03:01:11;4.80;;;3.63;;
7931;SDS011;4011;49.424;10.894;2023-06-14T03:06:34;4.07;;;3.42;;
7931;SDS011;4011;49.424;10.894;2023-06-14T03:11:56;4.68;;;3.72;;
7931;SDS011;4011;49.424;10.894;2023-06-14T03:17:19;4.57;;;3.92;;
7931;SDS011;4011;49.424;10.894;2023-06-14T03:22:42;4.88;;;3.50;;
7931;SDS011;4011;49.424;10.894;2023-06-14T03:28:06;4.55;;;3.72;;
7931;SDS011;4011;49.424;10.894;2023-06-14T03:33:29;4.47;;;3.55;;
7931;SDS011;4011;49.424;10.894;2023-06-14T03:38:51;4.60;;;3.78;;
7931;SDS011;4011;49.424;10.894;2023-06-14T03:44:13;4.80;;;3.45;;
7931;SDS011;4011;49.424;10.894;2023-06-14T03:49:37;4.63;;;3.78;;
7931;SDS011;4011;49.424;10.894;2023-06-14T03:55:00;4.65;;;3.78;;
7931;SDS011;4011;49.424;10.894;2023-06-14T04:00:27;5.30;;;3.60;;
7931;SDS011;4011;49.424;10.894;2023-06-14T04:05:52;5.05;;;3.60;;
7931;SDS011;4011;49.424;10.894;2023-06-14T04:11:16;4.47;;;3.60;;
7931;SDS011;4011;49.424;10.894;2023-06-14T04:16:38;5.45;;;3.70;;
7931;SDS011;4011;49.424;10.894;2023-06-14T04:22:01;5.70;;;4.20;;
7931;SDS011;4011;49.424;10.894;2023-06-14T04:27:23;5.85;;;3.90;;
7931;SDS011;4011;49.424;10.894;2023-06-14T04:32:46;5.88;;;4.10;;
7931;SDS011;4011;49.424;10.894;2023-06-14T04:38:11;6.50;;;4.03;;
7931;SDS011;4011;49.424;10.894;2023-06-14T04:43:32;9.90;;;5.07;;
7931;SDS011;4011;49.424;10.894;2023-06-14T04:54:24;5.78;;;4.28;;
7931;SDS011;4011;49.424;10.894;2023-06-14T04:59:46;8.00;;;4.65;;
7931;SDS011;4011;49.424;10.894;2023-06-14T05:05:08;6.45;;;4.70;;
7931;SDS011;4011;49.424;10.894;2023-06-14T05:10:35;6.90;;;4.20;;
7931;SDS011;4011;49.424;10.894;2023-06-14T05:15:57;6.10;;;4.15;;
7931;SDS011;4011;49.424;10.894;2023-06-14T05:21:19;5.75;;;4.20;;
7931;SDS011;4011;49.424;10.894;2023-06-14T05:26:43;6.22;;;4.40;;
7931;SDS011;4011;49.424;10.894;2023-06-14T05:32:05;6.22;;;4.43;;
7931;SDS011;4011;49.424;10.894;2023-06-14T05:37:27;6.35;;;4.18;;
7931;SDS011;4011;49.424;10.894;2023-06-14T05:42:51;5.28;;;3.83;;
7931;SDS011;4011;49.424;10.894;2023-06-14T05:48:15;5.70;;;4.10;;
7931;SDS011;4011;49.424;10.894;2023-06-14T05:53:38;5.78;;;4.28;;
7931;SDS011;4011;49.424;10.894;2023-06-14T05:59:01;4.57;;;3.70;;
7931;SDS011;4011;49.424;10.894;2023-06-14T06:04:23;5.18;;;3.83;;
7931;SDS011;4011;49.424;10.894;2023-06-14T06:09:44;6.97;;;4.80;;
7931;SDS011;4011;49.424;10.894;2023-06-14T06:15:08;5.05;;;4.03;;
7931;SDS011;4011;49.424;10.894;2023-06-14T06:20:32;5.13;;;3.92;;
7931;SDS011;4011;49.424;10.894;2023-06-14T06:25:53;6.07;;;4.07;;
7931;SDS011;4011;49.424;10.894;2023-06-14T06:31:17;5.88;;;3.92;;
7931;SDS011;4011;49.424;10.894;2023-06-14T06:36:38;5.15;;;4.15;;
7931;SDS011;4011;49.424;10.894;2023-06-14T06:42:00;5.60;;;3.92;;
7931;SDS011;4011;49.424;10.894;2023-06-14T06:47:23;5.40;;;3.75;;
7931;SDS011;4011;49.424;10.894;2023-06-14T06:52:46;6.03;;;3.80;;
7931;SDS011;4011;49.424;10.894;2023-06-14T06:58:07;6.55;;;4.43;;
7931;SDS011;4011;49.424;10.894;2023-06-14T07:03:30;5.15;;;3.90;;
7931;SDS011;4011;49.424;10.894;2023-06-14T07:08:52;5.50;;;3.78;;
7931;SDS011;4011;49.424;10.894;2023-06-14T07:14:13;5.22;;;3.67;;
7931;SDS011;4011;49.424;10.894;2023-06-14T07:19:36;5.32;;;4.22;;
7931;SDS011;4011;49.424;10.894;2023-06-14T07:24:58;7.93;;;4.00;;
7931;SDS011;4011;49.424;10.894;2023-06-14T07:30:20;4.88;;;3.70;;
7931;SDS011;4011;49.424;10.894;2023-06-14T07:35:47;5.65;;;3.70;;
7931;SDS011;4011;49.424;10.894;2023-06-14T07:41:09;8.65;;;4.60;;
7931;SDS011;4011;49.424;10.894;2023-06-14T07:46:31;5.60;;;4.13;;
7931;SDS011;4011;49.424;10.894;2023-06-14T07:51:54;6.22;;;3.88;;
7931;SDS011;4011;49.424;10.894;2023-06-14T07:57:18;5.40;;;3.58;;
7931;SDS011;4011;49.424;10.894;2023-06-14T08:02:40;6.03;;;4.05;;
7931;SDS011;4011;49.424;10.894;2023-06-14T08:08:03;4.40;;;3.83;;
7931;SDS011;4011;49.424;10.894;2023-06-14T08:13:25;5.07;;;3.80;;
7931;SDS011;4011;49.424;10.894;2023-06-14T08:18:46;5.35;;;3.72;;
7931;SDS011;4011;49.424;10.894;2023-06-14T08:24:10;5.88;;;3.88;;
7931;SDS011;4011;49.424;10.894;2023-06-14T08:29:32;5.20;;;4.10;;
7931;SDS011;4011;49.424;10.894;2023-06-14T08:34:54;5.72;;;3.72;;
7931;SDS011;4011;49.424;10.894;2023-06-14T08:40:20;5.93;;;3.95;;
7931;SDS011;4011;49.424;10.894;2023-06-14T08:45:42;4.68;;;3.90;;
7931;SDS011;4011;49.424;10.894;2023-06-14T08:51:04;7.18;;;4.22;;
7931;SDS011;4011;49.424;10.894;2023-06-14T08:56:28;5.53;;;3.53;;
7931;SDS011;4011;49.424;10.894;2023-06-14T09:01:49;5.55;;;3.70;;
7931;SDS011;4011;49.424;10.894;2023-06-14T09:07:12;4.88;;;3.30;;
7931;SDS011;4011;49.424;10.894;2023-06-14T09:12:35;5.18;;;4.20;;
7931;SDS011;4011;49.424;10.894;2023-06-14T09:17:56;5.90;;;3.67;;
7931;SDS011;4011;49.424;10.894;2023-06-14T09:23:20;4.18;;;3.40;;
7931;SDS011;4011;49.424;10.894;2023-06-14T09:28:43;4.47;;;3.38;;
7931;SDS011;4011;49.424;10.894;2023-06-14T09:34:05;6.15;;;4.30;;
7931;SDS011;4011;49.424;10.894;2023-06-14T09:39:26;4.25;;;3.75;;
7931;SDS011;4011;49.424;10.894;2023-06-14T09:44:49;4.55;;;3.20;;
7931;SDS011;4011;49.424;10.894;2023-06-14T09:50:11;4.28;;;3.40;;
7931;SDS011;4011;49.424;10.894;2023-06-14T09:55:34;4.45;;;3.65;;
7931;SDS011;4011;49.424;10.894;2023-06-14T10:00:57;4.93;;;4.07;;
7931;SDS011;4011;49.424;10.894;2023-06-14T10:06:19;4.53;;;3.50;;
7931;SDS011;4011;49.424;10.894;2023-06-14T10:11:44;5.88;;;3.55;;
7931;SDS011;4011;49.424;10.894;2023-06-14T10:17:09;5.50;;;3.95;;
7931;SDS011;4011;49.424;10.894;2023-06-14T10:22:32;5.38;;;3.78;;
7931;SDS011;4011;49.424;10.894;2023-06-14T10:28:22;5.28;;;3.58;;
7931;SDS011;4011;49.424;10.894;2023-06-14T10:33:49;4.72;;;4.03;;
7931;SDS011;4011;49.424;10.894;2023-06-14T10:39:14;4.40;;;3.60;;
7931;SDS011;4011;49.424;10.894;2023-06-14T10:44:42;4.85;;;3.42;;
7931;SDS011;4011;49.424;10.894;2023-06-14T10:50:06;4.72;;;4.20;;
7931;SDS011;4011;49.424;10.894;2023-06-14T10:55:28;4.30;;;3.60;;
7931;SDS011;4011;49.424;10.894;2023-06-14T11:00:56;5.65;;;3.72;;
7931;SDS011;4011;49.424;10.894;2023-06-14T11:06:21;4.65;;;3.75;;
7931;SDS011;4011;49.424;10.894;2023-06-14T11:11:44;4.95;;;4.45;;
7931;SDS011;4011;49.424;10.894;2023-06-14T11:17:07;6.38;;;3.65;;
7931;SDS011;4011;49.424;10.894;2023-06-14T11:22:30;5.65;;;3.80;;
7931;SDS011;4011;49.424;10.894;2023-06-14T11:27:59;5.25;;;4.30;;
7931;SDS011;4011;49.424;10.894;2023-06-14T11:33:21;5.70;;;4.30;;
7931;SDS011;4011;49.424;10.894;2023-06-14T11:38:45;5.50;;;3.70;;
7931;SDS011;4011;49.424;10.894;2023-06-14T11:44:07;5.82;;;4.00;;
7931;SDS011;4011;49.424;10.894;2023-06-14T11:49:29;5.70;;;4.10;;
7931;SDS011;4011;49.424;10.894;2023-06-14T11:54:52;4.88;;;4.38;;
7931;SDS011;4011;49.424;10.894;2023-06-14T12:00:14;4.65;;;3.50;;
7931;SDS011;4011;49.424;10.894;2023-06-14T12:05:37;4.88;;;3.60;;
7931;SDS011;4011;49.424;10.894;2023-06-14T12:11:00;4.93;;;3.92;;
7931;SDS011;4011;49.424;10.894;2023-06-14T12:16:29;5.90;;;4.45;;
7931;SDS011;4011;49.424;10.894;2023-06-14T12:21:51;5.20;;;3.72;;
7931;SDS011;4011;49.424;10.894;2023-06-14T12:27:14;4.80;;;3.50;;
7931;SDS011;4011;49.424;10.894;2023-06-14T12:32:38;5.22;;;3.90;;
7931;SDS011;4011;49.424;10.894;2023-06-14T12:38:00;4.90;;;4.38;;
7931;SDS011;4011;49.424;10.894;2023-06-14T12:43:25;4.70;;;3.30;;
7931;SDS011;4011;49.424;10.894;2023-06-14T12:48:46;5.63;;;3.85;;
7931;SDS011;4011;49.424;10.894;2023-06-14T12:54:08;4.55;;;3.47;;
7931;SDS011;4011;49.424;10.894;2023-06-14T12:59:32;5.93;;;4.30;;
7931;SDS011;4011;49.424;10.894;2023-06-14T13:04:54;4.60;;;3.42;;
7931;SDS011;4011;49.424;10.894;2023-06-14T13:10:15;4.75;;;3.55;;
7931;SDS011;4011;49.424;10.894;2023-06-14T13:15:38;5.10;;;3.60;;
7931;SDS011;4011;49.424;10.894;2023-06-14T13:21:00;4.70;;;4.13;;
7931;SDS011;4011;49.424;10.894;2023-06-14T13:26:22;5.75;;;4.05;;
7931;SDS011;4011;49.424;10.894;2023-06-14T13:31:46;5.18;;;3.92;;
7931;SDS011;4011;49.424;10.894;2023-06-14T13:37:07;5.38;;;3.50;;
7931;SDS011;4011;49.424;10.894;2023-06-14T13:42:29;4.90;;;3.85;;
7931;SDS011;4011;49.424;10.894;2023-06-14T13:47:53;5.75;;;4.05;;
7931;SDS011;4011;49.424;10.894;2023-06-14T13:53:15;4.53;;;3.47;;
7931;SDS011;4011;49.424;10.894;2023-06-14T13:58:37;6.07;;;3.72;;
7931;SDS011;4011;49.424;10.894;2023-06-14T14:04:00;5.78;;;3.80;;
7931;SDS011;4011;49.424;10.894;2023-06-14T14:09:22;5.25;;;3.95;;
7931;SDS011;4011;49.424;10.894;2023-06-14T14:14:44;4.70;;;3.63;;
7931;SDS011;4011;49.424;10.894;2023-06-14T14:20:09;4.85;;;3.35;;
7931;SDS011;4011;49.424;10.894;2023-06-14T14:25:32;6.22;;;4.13;;
7931;SDS011;4011;49.424;10.894;2023-06-14T14:30:54;4.60;;;3.95;;
7931;SDS011;4011;49.424;10.894;2023-06-14T14:36:17;5.70;;;3.72;;
7931;SDS011;4011;49.424;10.894;2023-06-14T14:41:39;5.93;;;3.55;;
7931;SDS011;4011;49.424;10.894;2023-06-14T14:47:00;6.03;;;3.50;;
7931;SDS011;4011;49.424;10.894;2023-06-14T14:52:25;5.03;;;4.53;;
7931;SDS011;4011;49.424;10.894;2023-06-14T14:57:46;5.65;;;3.70;;
7931;SDS011;4011;49.424;10.894;2023-06-14T15:03:08;5.30;;;3.45;;
7931;SDS011;4011;49.424;10.894;2023-06-14T15:08:31;6.57;;;3.72;;
7931;SDS011;4011;49.424;10.894;2023-06-14T15:13:52;5.18;;;3.63;;
7931;SDS011;4011;49.424;10.894;2023-06-14T15:19:14;7.53;;;4.32;;
7931;SDS011;4011;49.424;10.894;2023-06-14T15:24:37;4.97;;;3.75;;
7931;SDS011;4011;49.424;10.894;2023-06-14T15:29:59;5.93;;;3.95;;
7931;SDS011;4011;49.424;10.894;2023-06-14T15:35:20;8.90;;;4.80;;
7931;SDS011;4011;49.424;10.894;2023-06-14T15:40:43;6.25;;;5.47;;
7931;SDS011;4011;49.424;10.894;2023-06-14T15:46:06;6.30;;;4.80;;
7931;SDS011;4011;49.424;10.894;2023-06-14T15:51:27;5.78;;;4.38;;
7931;SDS011;4011;49.424;10.894;2023-06-14T15:56:50;7.20;;;4.82;;
7931;SDS011;4011;49.424;10.894;2023-06-14T16:02:12;5.90;;;4.72;;
7931;SDS011;4011;49.424;10.894;2023-06-14T16:07:34;5.95;;;4.30;;
7931;SDS011;4011;49.424;10.894;2023-06-14T16:12:57;8.15;;;4.55;;
7931;SDS011;4011;49.424;10.894;2023-06-14T16:18:19;5.75;;;4.32;;
7931;SDS011;4011;49.424;10.894;2023-06-14T16:23:40;5.80;;;4.88;;
7931;SDS011;4011;49.424;10.894;2023-06-14T16:29:04;5.63;;;4.32;;
7931;SDS011;4011;49.424;10.894;2023-06-14T16:34:25;4.97;;;3.92;;
7931;SDS011;4011;49.424;10.894;2023-06-14T16:39:47;4.57;;;3.47;;
7931;SDS011;4011;49.424;10.894;2023-06-14T16:45:10;9.02;;;5.05;;
7931;SDS011;4011;49.424;10.894;2023-06-14T16:50:33;13.25;;;7.18;;
7931;SDS011;4011;49.424;10.894;2023-06-14T16:55:55;13.60;;;6.53;;
7931;SDS011;4011;49.424;10.894;2023-06-14T17:01:18;16.58;;;7.07;;
7931;SDS011;4011;49.424;10.894;2023-06-14T17:06:39;13.88;;;6.90;;
7931;SDS011;4011;49.424;10.894;2023-06-14T17:12:01;15.25;;;7.25;;
7931;SDS011;4011;49.424;10.894;2023-06-14T17:17:24;13.02;;;7.07;;
7931;SDS011;4011;49.424;10.894;2023-06-14T17:22:46;12.73;;;6.50;;
7931;SDS011;4011;49.424;10.894;2023-06-14T17:28:08;10.07;;;5.90;;
7931;SDS011;4011;49.424;10.894;2023-06-14T17:33:31;9.48;;;5.55;;
7931;SDS011;4011;49.424;10.894;2023-06-14T17:38:54;9.00;;;5.25;;
7931;SDS011;4011;49.424;10.894;2023-06-14T17:44:16;7.47;;;4.72;;
7931;SDS011;4011;49.424;10.894;2023-06-14T17:49:39;7.55;;;4.40;;
7931;SDS011;4011;49.424;10.894;2023-06-14T17:55:01;8.40;;;4.93;;
7931;SDS011;4011;49.424;10.894;2023-06-14T18:00:23;7.78;;;5.18;;
7931;SDS011;4011;49.424;10.894;2023-06-14T18:05:46;8.40;;;4.60;;
7931;SDS011;4011;49.424;10.894;2023-06-14T18:11:08;7.68;;;4.13;;
7931;SDS011;4011;49.424;10.894;2023-06-14T18:16:31;6.68;;;4.07;;
7931;SDS011;4011;49.424;10.894;2023-06-14T18:21:58;7.28;;;4.55;;
7931;SDS011;4011;49.424;10.894;2023-06-14T18:27:20;7.70;;;3.85;;
7931;SDS011;4011;49.424;10.894;2023-06-14T18:32:42;5.75;;;3.83;;
7931;SDS011;4011;49.424;10.894;2023-06-14T18:38:08;5.50;;;3.75;;
7931;SDS011;4011;49.424;10.894;2023-06-14T18:43:32;5.72;;;4.20;;
7931;SDS011;4011;49.424;10.894;2023-06-14T18:48:54;6.43;;;3.80;;
7931;SDS011;4011;49.424;10.894;2023-06-14T18:54:18;7.22;;;3.70;;
7931;SDS011;4011;49.424;10.894;2023-06-14T18:59:40;5.40;;;3.70;;
7931;SDS011;4011;49.424;10.894;2023-06-14T19:05:03;6.35;;;3.97;;
7931;SDS011;4011;49.424;10.894;2023-06-14T19:10:32;5.80;;;3.40;;
7931;SDS011;4011;49.424;10.894;2023-06-14T19:15:54;5.30;;;3.65;;
7931;SDS011;4011;49.424;10.894;2023-06-14T19:21:16;4.43;;;3.30;;
7931;SDS011;4011;49.424;10.894;2023-06-14T19:26:41;5.13;;;3.42;;
7931;SDS011;4011;49.424;10.894;2023-06-14T19:32:04;4.85;;;3.17;;
7931;SDS011;4011;49.424;10.894;2023-06-14T19:37:26;5.63;;;3.45;;
7931;SDS011;4011;49.424;10.894;2023-06-14T19:42:49;4.60;;;3.63;;
7931;SDS011;4011;49.424;10.894;2023-06-14T19:48:11;4.43;;;3.90;;
7931;SDS011;4011;49.424;10.894;2023-06-14T19:53:33;5.22;;;3.30;;
7931;SDS011;4011;49.424;10.894;2023-06-14T19:58:57;4.90;;;3.40;;
7931;SDS011;4011;49.424;10.894;2023-06-14T20:04:19;4.55;;;3.38;;
7931;SDS011;4011;49.424;10.894;2023-06-14T20:15:32;4.60;;;3.47;;
7931;SDS011;4011;49.424;10.894;2023-06-14T20:20:54;5.13;;;3.92;;
7931;SDS011;4011;49.424;10.894;2023-06-14T20:26:15;5.07;;;3.63;;
7931;SDS011;4011;49.424;10.894;2023-06-14T20:31:39;4.57;;;3.38;;
7931;SDS011;4011;49.424;10.894;2023-06-14T20:37:00;4.53;;;3.42;;
7931;SDS011;4011;49.424;10.894;2023-06-14T20:42:22;4.70;;;3.35;;
7931;SDS011;4011;49.424;10.894;2023-06-14T20:47:47;5.25;;;3.78;;
7931;SDS011;4011;49.424;10.894;2023-06-14T20:53:11;5.05;;;3.33;;
7931;SDS011;4011;49.424;10.894;2023-06-14T20:58:33;5.72;;;3.88;;
7931;SDS011;4011;49.424;10.894;2023-06-14T21:03:56;4.90;;;3.60;;
7931;SDS011;4011;49.424;10.894;2023-06-14T21:09:18;5.30;;;4.03;;
7931;SDS011;4011;49.424;10.894;2023-06-14T21:14:39;4.65;;;3.40;;
7931;SDS011;4011;49.424;10.894;2023-06-14T21:20:02;4.20;;;3.63;;
7931;SDS011;4011;49.424;10.894;2023-06-14T21:25:35;4.75;;;4.22;;
7931;SDS011;4011;49.424;10.894;2023-06-14T21:30:57;4.70;;;3.70;;
7931;SDS011;4011;49.424;10.894;2023-06-14T21:36:20;4.32;;;3.47;;
7931;SDS011;4011;49.424;10.894;2023-06-14T21:41:42;4.45;;;3.55;;
7931;SDS011;4011;49.424;10.894;2023-06-14T21:47:04;5.38;;;3.70;;
7931;SDS011;4011;49.424;10.894;2023-06-14T21:52:28;4.60;;;4.10;;
7931;SDS011;4011;49.424;10.894;2023-06-14T21:57:49;5.35;;;3.97;;
7931;SDS011;4011;49.424;10.894;2023-06-14T22:03:14;6.68;;;4.00;;
7931;SDS011;4011;49.424;10.894;2023-06-14T22:08:41;5.85;;;3.70;;
7931;SDS011;4011;49.424;10.894;2023-06-14T22:14:16;5.82;;;4.10;;
7931;SDS011;4011;49.424;10.894;2023-06-14T22:19:41;5.95;;;3.83;;
7931;SDS011;4011;49.424;10.894;2023-06-14T22:25:05;6.18;;;3.92;;
7931;SDS011;4011;49.424;10.894;2023-06-14T22:30:27;7.03;;;4.38;;
7931;SDS011;4011;49.424;10.894;2023-06-14T22:35:49;6.03;;;3.83;;
7931;SDS011;4011;49.424;10.894;2023-06-14T22:41:12;6.22;;;4.00;;
7931;SDS011;4011;49.424;10.894;2023-06-14T22:46:34;5.35;;;4.00;;
7931;SDS011;4011;49.424;10.894;2023-06-14T22:51:56;5.88;;;4.28;;
7931;SDS011;4011;49.424;10.894;2023-06-14T22:57:22;5.88;;;3.58;;
7931;SDS011;4011;49.424;10.894;2023-06-14T23:02:50;5.68;;;3.38;;
7931;SDS011;4011;49.424;10.894;2023-06-14T23:08:12;5.90;;;4.00;;
7931;SDS011;4011;49.424;10.894;2023-06-14T23:13:34;5.78;;;4.68;;
7931;SDS011;4011;49.424;10.894;2023-06-14T23:18:58;5.07;;;3.63;;
7931;SDS011;4011;49.424;10.894;2023-06-14T23:24:23;4.43;;;3.47;;
7931;SDS011;4011;49.424;10.894;2023-06-14T23:29:46;5.72;;;4.22;;
7931;SDS011;4011;49.424;10.894;2023-06-14T23:35:08;5.43;;;4.38;;
7931;SDS011;4011;49.424;10.894;2023-06-14T23:40:30;5.50;;;3.78;;
7931;SDS011;4011;49.424;10.894;2023-06-14T23:45:54;4.15;;;3.40;;
7931;SDS011;4011;49.424;10.894;2023-06-14T23:51:17;6.05;;;3.70;;
7931;SDS011;4011;49.424;10.894;2023-06-14T23:56:42;5.15;;;3.92;;
